Latest Weather Observations for Degrussa Aerodrome

IDW60801

Issued at 6:52 am WST Wednesday 19 June 2019 (issued every 10 minutes, with the page automatically refreshed every 10 minutes)

About weather observations | Map of weather stations | Latest weather observations for WA | Other Formats
Station Details ID: 507500 Name: DEGRUSSA AERODROME Lat: -25.56 Lon: 119.29 Height: 550.91 m
Data from the previous 72 hours. | See also: Recent months for locations in Western Australia
Date/Time
WST
Temp
°C
App
Temp
°C
Dew
Point
°C
Rel
Hum
%
Delta-T
°C
Wind Press
QNH
hPa
Press
MSL
hPa
Rain since
9am
mm
Dir  Spd
km/h
Gust
km/h
Spd
kts
Gust
kts
19/06:30am 9.2 2.6 1.9 60 3.1 ESE 26 33 14 18 1020.4 1019.6 0.0
19/06:00am 9.3 3.0 1.7 59 3.3 ESE 24 33 13 18 1020.2 1019.4 0.0
19/05:30am 9.3 3.4 1.9 60 3.2 ESE 22 32 12 17 1020.0 1019.2 0.0
19/05:00am 9.4 3.5 1.8 59 3.3 ESE 22 32 12 17 1020.0 1019.2 0.0
19/04:30am 9.5 4.0 1.9 59 3.3 E 20 28 11 15 1019.8 1019.0 0.0
19/04:00am 9.6 3.7 1.8 58 3.4 E 22 32 12 17 1019.9 1019.1 0.0
19/03:30am 9.9 4.0 1.8 57 3.5 ESE 22 32 12 17 1020.1 1019.3 0.0
19/03:00am 10.0 4.5 1.6 56 3.6 ESE 20 33 11 18 1020.1 1019.3 0.0
19/02:30am 10.5 4.3 1.9 55 3.8 ESE 24 33 13 18 1020.3 1019.5 0.0
19/02:00am 11.0 4.7 1.8 53 4.0 ESE 24 33 13 18 1020.3 1019.5 0.0
19/01:30am 11.4 5.2 1.9 52 4.2 ESE 24 33 13 18 1020.4 1019.6 0.0
19/01:00am 11.4 5.9 1.9 52 4.2 ESE 20 30 11 16 1020.5 1019.7 0.0
19/12:30am 11.9 6.1 2.1 51 4.4 ESE 22 30 12 16 1020.6 1019.9 0.0
19/12:00am 12.3 6.1 1.9 49 4.6 ESE 24 30 13 16 1020.8 1020.1 0.0
 
Date/Time
WST
Temp
°C
App
Temp
°C
Dew
Point
°C
Rel
Hum
%
Delta-T
°C
Wind Press
QNH
hPa
Press
MSL
hPa
Rain since
9am
mm
Dir  Spd
km/h
Gust
km/h
Spd
kts
Gust
kts
18/11:30pm 12.6 6.7 1.9 48 4.8 ESE 22 30 12 16 1021.1 1020.3 0.0
18/11:00pm 12.9 7.4 1.6 46 5.0 ESE 20 26 11 14 1021.4 1020.6 0.0
18/10:30pm 13.2 7.6 1.5 45 5.2 ESE 20 28 11 15 1021.5 1020.7 0.0
18/10:00pm 13.7 8.1 1.4 43 5.4 ESE 20 28 11 15 1021.6 1020.8 0.0
18/09:30pm 13.8 8.4 1.1 42 5.6 ESE 19 24 10 13 1021.5 1020.7 0.0
18/09:00pm 13.9 8.8 0.9 41 5.7 ESE 17 22 9 12 1021.4 1020.6 0.0
18/08:30pm 14.5 9.7 0.4 38 6.2 SE 15 19 8 10 1021.2 1020.4 0.0
18/08:00pm 14.6 10.2 0.5 38 6.2 SE 13 17 7 9 1021.1 1020.3 0.0
18/07:30pm 13.9 10.2 0.2 39 5.9 SE 9 13 5 7 1020.8 1020.1 0.0
18/07:00pm 14.8 10.8 0.3 37 6.3 SE 11 11 6 6 1020.6 1019.9 0.0
18/06:30pm 15.8 12.1 0.0 34 6.9 SE 9 9 5 5 1020.5 1019.7 0.0
18/06:00pm 17.0 13.3 0.2 32 7.5 ESE 9 11 5 6 1020.3 1019.5 0.0
18/05:30pm 18.4 13.6 0.1 29 8.2 ESE 15 22 8 12 1020.0 1019.2 0.0
18/05:00pm 19.1 14.3 0.2 28 8.6 E 15 20 8 11 1019.9 1019.1 0.0
18/04:30pm 19.7 14.5 0.2 27 8.9 ESE 17 20 9 11 1019.8 1019.0 0.0
18/04:00pm 20.1 15.3 0.5 27 9.0 ESE 15 22 8 12 1019.8 1019.0 0.0
18/03:30pm 20.4 16.0 0.3 26 9.2 E 13 20 7 11 1019.9 1019.1 0.0
18/03:00pm 20.0 15.6 0.5 27 8.9 E 13 24 7 13 1020.0 1019.2 0.0
18/02:30pm 19.9 15.1 0.4 27 8.9 E 15 20 8 11 1020.2 1019.4 0.0
18/02:00pm 20.2 15.5 1.1 28 8.9 E 15 24 8 13 1020.3 1019.5 0.0
18/01:30pm 19.1 14.1 1.1 30 8.3 E 17 30 9 16 1020.7 1020.0 0.0
18/01:00pm 18.5 13.1 1.5 32 7.9 E 19 26 10 14 1021.2 1020.4 0.0
18/12:30pm 18.1 12.6 1.6 33 7.6 ENE 20 30 11 16 1021.8 1021.0 0.0
18/12:00pm 17.5 11.6 1.5 34 7.3 E 22 30 12 16 1022.3 1021.6 0.0
18/11:30am 17.1 11.2 1.9 36 7.0 E 22 32 12 17 1023.0 1022.2 0.0
18/11:00am 16.1 9.5 2.2 39 6.4 ENE 26 35 14 19 1023.5 1022.7 0.0
18/10:30am 15.2 7.5 2.4 42 5.9 ENE 32 43 17 23 1023.9 1023.2 0.0
18/10:00am 14.2 6.8 2.1 44 5.5 ENE 30 39 16 21 1024.2 1023.5 0.0
18/09:30am 13.2 5.3 2.4 48 4.9 E 33 46 18 25 1024.1 1023.4 0.0
18/09:00am 12.6 4.9 2.5 50 4.5 E 32 44 17 24 1024.1 1023.4 0.0
18/08:30am 11.6 3.9 2.4 53 4.1 E 32 50 17 27 1024.0 1023.3 0.0
18/08:27am 11.5 4.6 2.3 53 4.1 E 28 50 15 27 1024.0 1023.3 0.0
18/08:00am 10.4 4.5 2.0 56 3.7 E 22 32 12 17 1024.2 1023.5 0.0
18/07:30am 9.4 4.5 1.8 59 3.3 E 17 26 9 14 1024.2 1023.5 0.0
18/07:00am 9.0 3.7 1.7 60 3.1 E 19 24 10 13 1023.9 1023.2 0.0
18/06:30am 9.4 3.9 1.6 58 3.3 E 20 26 11 14 1023.6 1022.8 0.0
18/06:00am 9.4 4.1 1.6 58 3.3 E 19 30 10 16 1023.4 1022.6 0.0
18/05:30am 8.9 3.9 1.3 59 3.2 E 17 22 9 12 1023.1 1022.3 0.0
18/05:00am 8.6 3.6 1.1 59 3.1 E 17 22 9 12 1023.1 1022.3 0.0
18/04:30am 8.5 4.6 1.2 60 3.1 ESE 11 15 6 8 1023.3 1022.5 0.0
18/04:00am 8.5 5.0 1.0 59 3.1 ESE 9 13 5 7 1023.5 1022.7 0.0
18/03:30am 8.9 5.4 1.1 58 3.3 ESE 9 13 5 7 1023.5 1022.7 0.0
18/03:00am 9.3 5.8 1.0 56 3.5 ESE 9 11 5 6 1023.6 1022.8 0.0
18/02:30am 9.8 5.9 0.9 54 3.8 ESE 11 17 6 9 1023.3 1022.5 0.0
18/02:00am 10.1 5.8 1.0 53 3.9 ESE 13 17 7 9 1023.3 1022.5 0.0
18/01:30am 10.4 6.5 1.0 52 4.0 ESE 11 15 6 8 1023.6 1022.8 0.0
18/01:00am 11.0 7.1 1.0 50 4.3 ESE 11 17 6 9 1023.9 1023.2 0.0
18/12:30am 11.8 6.8 1.2 48 4.6 ESE 17 22 9 12 1023.7 1022.9 0.0
18/12:00am 12.3 7.7 1.3 47 4.8 ESE 15 22 8 12 1024.2 1023.5 0.0
 
Date/Time
WST
Temp
°C
App
Temp
°C
Dew
Point
°C
Rel
Hum
%
Delta-T
°C
Wind Press
QNH
hPa
Press
MSL
hPa
Rain since
9am
mm
Dir  Spd
km/h
Gust
km/h
Spd
kts
Gust
kts
17/11:30pm 12.6 8.0 1.3 46 5.0 SE 15 20 8 11 1024.4 1023.7 0.0
17/11:00pm 13.1 8.5 1.5 45 5.1 ESE 15 20 8 11 1024.4 1023.7 0.0
17/10:30pm 13.2 8.9 1.2 44 5.3 ESE 13 19 7 10 1024.4 1023.7 0.0
17/10:00pm 13.5 9.2 1.2 43 5.4 SE 13 19 7 10 1024.4 1023.7 0.0
17/09:30pm 13.8 9.5 1.1 42 5.6 SE 13 17 7 9 1024.4 1023.7 0.0
17/09:00pm 14.2 9.9 1.2 41 5.7 SE 13 17 7 9 1024.2 1023.5 0.0
17/08:30pm 14.7 10.4 1.3 40 6.0 ESE 13 20 7 11 1023.9 1023.2 0.0
17/08:00pm 14.6 10.7 1.2 40 5.9 SE 11 17 6 9 1023.8 1023.1 0.0
17/07:30pm 14.9 11.0 1.1 39 6.2 SSE 11 13 6 7 1023.5 1022.7 0.0
17/07:00pm 15.8 11.9 1.2 37 6.5 SE 11 15 6 8 1023.2 1022.4 0.0
17/06:30pm 16.6 12.3 1.1 35 7.0 SE 13 17 7 9 1023.2 1022.4 0.0
17/06:00pm 17.5 12.9 1.5 34 7.3 SE 15 20 8 11 1022.9 1022.1 0.0
17/05:30pm 18.1 13.4 1.2 32 7.8 SE 15 20 8 11 1022.5 1021.8 0.0
17/05:00pm 18.9 13.3 1.0 30 8.2 ESE 20 30 11 16 1022.4 1021.7 0.0
17/04:30pm 19.6 14.0 1.1 29 8.6 ESE 20 30 11 16 1022.4 1021.7 0.0
17/04:00pm 19.8 14.8 1.3 29 8.6 SE 17 28 9 15 1022.3 1021.6 0.0
17/03:30pm 19.9 14.4 1.8 30 8.5 ESE 20 32 11 17 1022.2 1021.5 0.0
17/03:00pm 20.1 14.6 2.0 30 8.5 ESE 20 32 11 17 1022.2 1021.5 0.0
17/02:30pm 19.8 14.4 2.2 31 8.4 SE 20 32 11 17 1022.4 1021.7 0.0
17/02:00pm 19.4 14.5 2.3 32 8.1 E 17 24 9 13 1022.4 1021.7 0.0
17/01:30pm 18.8 13.6 2.6 34 7.7 ESE 19 28 10 15 1022.9 1022.1 0.0
17/01:00pm 18.7 14.0 2.9 35 7.5 E 17 30 9 16 1023.6 1022.8 0.0
17/12:30pm 18.4 13.0 2.7 35 7.4 ESE 20 30 11 16 1024.0 1023.3 0.0
17/12:00pm 18.2 12.1 2.9 36 7.2 ESE 24 37 13 20 1024.3 1023.6 0.0
17/11:30am 17.7 12.5 3.6 39 6.8 E 20 32 11 17 1024.9 1024.1 0.0
17/11:00am 17.1 11.5 3.4 40 6.5 ESE 22 32 12 17 1025.4 1024.7 0.0
17/10:30am 16.4 10.1 3.8 43 6.0 ESE 26 35 14 19 1025.6 1024.9 0.0
17/10:00am 15.4 8.7 3.9 46 5.4 ESE 28 35 15 19 1025.9 1025.2 0.0
17/09:30am 14.1 8.2 3.8 50 4.8 SE 24 33 13 18 1026.2 1025.5 0.0
17/09:00am 12.9 7.4 3.8 54 4.2 ESE 22 32 12 17 1026.2 1025.5 0.0
17/08:30am 11.7 6.1 3.7 58 3.7 ESE 22 32 12 17 1026.0 1025.3 0.0
17/08:00am 10.1 5.4 3.4 63 3.0 SE 17 24 9 13 1025.8 1025.1 0.0
17/07:30am 8.8 4.5 3.4 69 2.4 SE 15 20 8 11 1025.4 1024.7 0.0
17/07:00am 8.2 3.9 3.3 71 2.2 SE 15 19 8 10 1025.1 1024.3 0.0
17/06:30am 8.5 3.8 3.1 69 2.4 SE 17 20 9 11 1025.0 1024.2 0.0
17/06:00am 8.9 3.8 3.3 68 2.5 ESE 19 22 10 12 1024.7 1024.0 0.0
17/05:30am 9.2 4.5 3.2 66 2.7 ESE 17 22 9 12 1024.5 1023.8 0.0
17/05:00am 9.2 5.3 3.2 66 2.7 ESE 13 19 7 10 1024.4 1023.7 0.0
17/04:30am 9.7 5.0 3.2 64 2.9 SE 17 20 9 11 1024.1 1023.4 0.0
17/04:00am 9.8 5.1 3.3 64 2.9 SE 17 20 9 11 1024.2 1023.5 0.0
17/03:30am 10.1 5.4 3.4 63 3.0 SE 17 20 9 11 1024.0 1023.3 0.0
17/03:00am 10.5 5.8 3.3 61 3.2 SE 17 22 9 12 1024.0 1023.3 0.0
17/02:30am 10.9 5.8 3.2 59 3.5 SE 19 26 10 14 1024.0 1023.3 0.0
17/02:00am 11.2 6.5 3.3 58 3.6 SE 17 24 9 13 1024.2 1023.5 0.0
17/01:30am 11.7 6.6 3.2 56 3.9 SE 19 26 10 14 1024.2 1023.5 0.0
17/01:00am 11.9 7.2 3.2 55 3.9 SE 17 22 9 12 1024.1 1023.4 0.0
17/12:30am 12.2 7.5 2.9 53 4.2 SE 17 24 9 13 1024.1 1023.4 0.0
17/12:00am 12.6 7.9 3.0 52 4.4 SE 17 24 9 13 1024.0 1023.3 0.0
 
Date/Time
WST
Temp
°C
App
Temp
°C
Dew
Point
°C
Rel
Hum
%
Delta-T
°C
Wind Press
QNH
hPa
Press
MSL
hPa
Rain since
9am
mm
Dir  Spd
km/h
Gust
km/h
Spd
kts
Gust
kts
16/11:30pm 13.4 8.1 2.9 49 4.8 SE 20 26 11 14 1024.0 1023.3 0.0
16/11:00pm 13.8 8.6 2.4 46 5.2 SE 19 26 10 14 1024.0 1023.3 0.0
16/10:30pm 12.9 9.2 2.2 48 4.8 SE 11 17 6 9 1024.3 1023.6 0.0
16/10:00pm 13.0 9.6 1.7 46 5.0 SE 9 13 5 7 1024.5 1023.8 0.0
16/09:30pm 13.4 10.3 1.4 44 5.3 SE 7 9 4 5 1024.6 1023.9 0.0
16/09:00pm 14.5 11.0 1.1 40 5.9 SSE 9 9 5 5 1024.6 1023.9 0.0
16/08:30pm 16.2 13.1 1.1 36 6.8 SE 7 11 4 6 1024.3 1023.6 0.0
16/08:00pm 16.6 11.9 1.1 35 7.0 ESE 15 20 8 11 1023.4 1022.6 0.0
16/07:30pm 15.7 11.7 0.7 36 6.7 SSE 11 15 6 8 1024.3 1023.6 0.0
16/07:00pm 15.5 12.6 1.3 38 6.4 E 6 7 3 4 1023.9 1023.2 0.0
16/06:30pm 16.6 14.0 0.7 34 7.1 ESE 4 6 2 3 1023.7 1022.9 0.0
16/06:00pm 17.5 14.2 0.2 31 7.7 E 7 9 4 5 1023.2 1022.4 0.0
16/05:30pm 18.2 14.5 -0.1 29 8.2 ESE 9 9 5 5 1023.0 1022.2 0.0
16/05:00pm 19.1 15.7 -0.3 27 8.7 SE 7 11 4 6 1023.0 1022.2 0.0
16/04:30pm 19.2 16.0 -0.2 27 8.7 SE 6 11 3 6 1023.0 1022.2 0.0
16/04:00pm 20.1 17.0 0.0 26 9.1 SSE 6 13 3 7 1022.9 1022.1 0.0
16/03:30pm 19.7 16.0 -0.3 26 9.0 E 9 13 5 7 1022.6 1021.9 0.0
16/03:00pm 19.5 15.0 -0.5 26 8.9 E 13 20 7 11 1022.5 1021.8 0.0
16/02:30pm 19.7 16.0 0.2 27 8.9 E 9 19 5 10 1022.5 1021.8 0.0
16/02:00pm 19.1 15.1 0.7 29 8.4 E 11 17 6 9 1022.6 1021.9 0.0
16/01:30pm 19.0 14.3 1.1 30 8.3 ESE 15 22 8 12 1023.1 1022.3 0.0
16/01:00pm 19.0 15.2 2.0 32 8.0 E 11 20 6 11 1023.7 1022.9 0.0
16/12:30pm 18.3 14.1 1.8 33 7.7 E 13 19 7 10 1024.3 1023.6 0.0
16/12:00pm 18.0 13.5 2.3 35 7.3 E 15 22 8 12 1024.7 1024.0 0.0
16/11:30am 17.4 13.0 2.6 37 7.0 E 15 24 8 13 1025.4 1024.7 0.0
16/11:00am 16.7 11.9 2.7 39 6.5 E 17 24 9 13 1025.8 1025.1 0.0
16/10:30am 16.1 11.4 3.2 42 6.1 ESE 17 26 9 14 1026.0 1025.3 0.0
16/10:00am 15.3 11.0 3.5 45 5.5 E 15 22 8 12 1026.3 1025.6 0.0
16/09:30am 14.1 9.9 3.8 50 4.8 E 15 22 8 12 1026.3 1025.6 0.0
16/09:00am 12.7 8.2 4.2 56 4.0 ESE 17 22 9 12 1026.3 1025.6 0.0
16/08:30am 11.1 6.2 4.1 62 3.2 ESE 19 26 10 14 1026.1 1025.4 0.0
16/08:00am 9.8 6.0 4.0 67 2.6 ESE 13 17 7 9 1026.0 1025.3 0.0
16/07:30am 8.0 4.5 3.7 74 1.9 ESE 11 15 6 8 1025.5 1024.8 0.0
16/07:00am 6.2 3.0 3.2 81 1.3 SE 9 11 5 6 1025.2 1024.4 0.0

Other formats

Comma delimited format used in spreadsheet applications
http://www.bom.gov.au/fwo/IDW60801/IDW60801.99400.axf

JavaScript Object Notation format (JSON) in row-major order
http://www.bom.gov.au/fwo/IDW60801/IDW60801.99400.json

Data quality

Most of these data are generated automatically and are frequently updated. Quality checks on data are not normally performed. It is possible for incorrect values to appear. Refer to information at About Latest Weather Observations and please check the disclaimer before using these data.